Sunday, January 21, 2018, 4:56 AM GMT
Back to Local

CYBG, Bagotville, Que.

Location: , , Canada Lat: 48.333
Local Time: 4:56 AM GMT ( 4:56 GMT) Lon: -71
Time Zone: GMT Elev: 521 ft

Show me the last for .
Show Coded

Time T Td Feel RH Dir Speed Gust Alt SLP Vis Weather Sky Remarks
2018-01-21 04:28 12 7 -3 78 300° 13 - 29.89 29.92 12 -SN OVC023 None
2018-01-21 04:00 14 7 -5 72 290° 17 24 29.87 29.90 20 OVC025 None
2018-01-21 03:00 14 7 -5 72 290° 16 23 29.85 29.88 20 DRSN BKN028 None
2018-01-21 02:00 14 5 -4 66 300° 22 - 29.81 29.85 15 DRSN SCT032 None
2018-01-21 01:42 14 9 -6 78 300° 17 28 29.81 29.84 15 DRSN SCT032 None
2018-01-21 01:00 16 9 -4 72 290° 23 29 29.80 29.83 15 -SHSN DRSN OVC032 None
2018-01-21 00:42 16 12 -4 85 300° 18 29 29.79 29.82 15 -SHSN DRSN OVC033 None
2018-01-21 00:00 18 10 -4 72 290° 24 38 29.75 29.78 15 DRSN OVC031 Pressure rising rapidly
2018-01-20 23:00 18 10 -5 72 300° 35 41 29.69 29.72 10 DRSN BKN036 Pressure rising rapidly
2018-01-20 22:00 19 12 -1 73 290° 26 37 29.62 29.65 15 DRSN FEW035 SCT050 BKN240 Pressure rising rapidly
2018-01-20 21:40 19 12 0 73 290° 25 31 29.58 29.61 15 DRSN BKN038 Pressure rising rapidly
2018-01-20 21:00 23 16 3 73 290° 23 40 29.53 29.56 15 -SN DRSN BKN035 BKN090 Pressure rising rapidly
2018-01-20 20:00 28 23 11 79 290° 30 37 29.42 29.45 25 DRSN BKN041 OVC092 Pressure rising rapidly
2018-01-20 19:30 30 27 14 86 290° 28 38 29.38 29.41 12 DRSN SCT038 OVC093 Pressure rising rapidly
2018-01-20 19:15 30 27 14 86 290° 26 33 29.36 29.39 7 -SHSN DRSN BKN038 OVC094 Pressure rising rapidly
2018-01-20 19:00 30 27 14 86 290° 31 38 29.35 29.37 3 -SHSN BLSN OVC038 Pressure rising rapidly
2018-01-20 18:43 30 27 14 86 290° 31 37 29.33 29.36 3 -SHSN BLSN OVC033 Pressure rising rapidly
2018-01-20 18:10 34 30 19 86 260° 22 35 29.27 29.29 1 -SHSN BLSN VV008 Pressure rising rapidly
2018-01-20 18:00 36 30 22 80 250° 26 35 29.25 29.28 3 -SHSN BLSN OVC031 None
2018-01-20 17:45 36 28 22 74 250° 23 33 29.24 29.27 6 -SHSN DRSN BKN036 OVC060 None
2018-01-20 17:20 36 28 23 74 240° 21 28 29.23 29.26 15 DRSN SCT039 OVC060 None
2018-01-20 17:00 34 28 21 80 240° 16 24 29.23 29.26 10 -SHSN DRSN FEW030 OVC050 None
2018-01-20 16:14 34 28 21 80 250° 28 - 29.24 29.27 6 -SHSN BLSN BKN030 OVC070 None
2018-01-20 16:00 34 28 20 80 240° 22 29 29.24 29.27 15 DRSN SCT030 OVC070 None
2018-01-20 15:19 32 28 17 86 250° 23 31 29.23 29.26 10 -SHSN OVC030 None
2018-01-20 15:00 32 28 17 86 250° 25 36 29.23 29.26 5 -SHSN BLSN OVC028 None
2018-01-20 14:28 32 28 17 86 250° 20 35 29.22 29.25 4 -SHSN BLSN OVC038 None
2018-01-20 14:00 30 28 16 92 250° 17 28 29.22 29.25 6 -SHSN BLSN OVC031 None
2018-01-20 13:46 32 28 18 86 250° 21 29 29.22 29.25 7 -SHSN OVC030 None
2018-01-20 13:30 30 28 16 92 240° 18 28 29.22 29.25 4 -SHSN BLSN OVC029 None
2018-01-20 13:00 30 30 18 100 250° 14 20 29.22 29.25 15 -SHSN OVC035 None
2018-01-20 12:18 30 27 17 86 250° 21 - 29.22 29.25 6 -SN OVC037 None
2018-01-20 12:00 28 27 23 92 250° 5 - 29.22 29.25 1 -SN VV009 None
2018-01-20 11:00 21 19 - 92 110° 2 - 29.25 29.28 1 -SN VV008 None
2018-01-20 10:00 21 19 9 92 100° 12 - 29.25 29.28 1 -SN VV007 None
2018-01-20 09:00 21 18 9 85 100° 12 - 29.27 29.30 1 -SN VV007 None
2018-01-20 08:39 21 18 9 85 100° 12 - 29.28 29.31 2 -SN OVC015 None
2018-01-20 08:00 19 18 7 92 100° 13 - 29.31 29.35 0 -SN VV004 Pressure falling rapidly
2018-01-20 07:00 19 16 7 85 100° 13 - 29.41 29.44 0 SN VV004 None
2018-01-20 06:47 19 16 6 85 100° 14 - 29.41 29.44 0 SN VV004 None
2018-01-20 06:00 19 16 5 85 90° 15 - 29.40 29.43 1 -SN VV006 None
2018-01-20 05:25 19 16 3 85 100° 15 21 29.41 29.44 1 -SN VV006 Pressure falling rapidly
2018-01-20 05:00 18 14 2 85 90° 17 - 29.44 29.47 2 -SN OVC020 Pressure falling rapidly

Support USWX by starting your Amazon purchase here.